South Lima, NY (14558)

3:44 PM EDT on August 22, 2014 (GMT -0400)
Shooting Star Farm | Change Station
CLOSE
Current Station
Personal Weather Station
Location: Livonia, NY
Elevation: 909 ft
Nearby Weather Stations

Elev 909 ft 42.84 °N, 77.68 °W | Updated 15 minutes ago

Scattered Clouds
Scattered Clouds
79.9 °F
Feels Like 83 °F
N
3.0
Wind Variable Wind from North
Gusts 4.0 mph

Today
High -- | Low -- °F
--% Chance of Precip.
Yesterday
High -- | Low -- °F
Precip. -- in
6:24 AM 8:01 PM
Waning Crescent, 7% visible
Pressure 29.98 in
Visibility 10.0 miles
Clouds Few 2200 ft
Scattered Clouds 3400 ft
Heat Index 83 °F
Dew Point 69 °F
Humidity 69%
Rainfall 0.00 in
Snow Depth Not available.
UV 6 out of 12
Pollen 9.00 out of 12
PM2.5 Moderate
Flu Activity Not available.
METAR KROC 221854Z 03010KT 10SM FEW022 SCT034 26/19 A2998 RMK AO2 SLP151 T02560194

More Conditions Fewer Conditions

Pressure 29.98 in
Visibility 10.0 miles
Clouds Few 2200 ft
Scattered Clouds 3400 ft
Heat Index 83 °F
Dew Point 69 °F
Humidity 69%
Rainfall 0.00 in
Snow Depth Not available.
UV 6 out of 12
Pollen 9.00 out of 12
PM2.5 Moderate
Flu Activity Not available.
METAR KROC 221854Z 03010KT 10SM FEW022 SCT034 26/19 A2998 RMK AO2 SLP151 T02560194

More Conditions Fewer Conditions

10-Day Weather Forecast

Almanac

Astronomy

Aug. 22, 2014 Rise Set
Actual Time 6:24 AM EDT 8:01 PM EDT
Civil Twilight 5:54 AM EDT 8:31 PM EDT
Nautical Twilight 5:18 AM EDT 9:07 PM EDT
Astronomical Twilight 4:39 AM EDT 9:46 PM EDT
Moon 3:43 AM EDT 6:10 PM EDT
Length of Visible Light 14h 37m
Length of Day
13h 37m
Tomorrow will be 2m 42s shorter.
Waning Crescent, 7% of the Moon is Illuminated
Today
Waning Crescent
Aug 25
New
Sep 2
First Quarter
Sep 8
Full
Sep 15
Last Quarter

Today's Extremes

State Highs State Lows

Community

WunderPhotos

Upload Photos

1,746,227 photos uploaded!

Nearby

Air Quality

  Air Quality AQ Index Pollutant
Yesterday Good
PM2.5
Yesterday Good
OZONE
Current Moderate
PM2.5
Friday Good
OZONE
Friday Good
PM2.5
Saturday Good
OZONE
Saturday Good
PM2.5
Sunday Good
PM2.5
Sunday Good
OZONE
Monday Good
PM2.5
Monday Good
OZONE

Snow Depth

Station Depth Elevation
No new snow has been reported.

Earthquake Activity

City Distance Mag. Time & Date
No recent earthquake activity has been reported nearby.
Minimum magnitude displayed is 2.5.

Coastal Water Temperatures

Place Temperature
Buffalo, NY 73.0 °F
Alexandria Bay, NY 69.1 °F

Nearby Weather Stations